sensor_id;sensor_type;location;lat;lon;timestamp;pressure;altitude;pressure_sealevel;temperature;humidity
46045;BME280;31781;54.094;13.428;2022-09-24T00:04:24;101535.09;;;12.88;55.97
46045;BME280;31781;54.094;13.428;2022-09-24T00:20:25;101526.06;;;12.87;55.18
46045;BME280;31781;54.094;13.428;2022-09-24T00:25:27;101527.94;;;12.87;55.39
46045;BME280;31781;54.094;13.428;2022-09-24T00:30:30;101520.81;;;12.86;56.39
46045;BME280;31781;54.094;13.428;2022-09-24T00:35:38;101519.97;;;12.85;56.08
46045;BME280;31781;54.094;13.428;2022-09-24T00:40:41;101510.94;;;12.85;55.59
46045;BME280;31781;54.094;13.428;2022-09-24T00:45:44;101504.81;;;12.83;56.02
46045;BME280;31781;54.094;13.428;2022-09-24T00:50:53;101506.28;;;12.79;55.90
46045;BME280;31781;54.094;13.428;2022-09-24T00:55:59;101497.66;;;12.75;55.45
46045;BME280;31781;54.094;13.428;2022-09-24T01:01:06;101488.00;;;12.73;55.91
46045;BME280;31781;54.094;13.428;2022-09-24T01:11:46;101485.06;;;12.74;54.80
46045;BME280;31781;54.094;13.428;2022-09-24T01:16:57;101478.94;;;12.65;55.15
46045;BME280;31781;54.094;13.428;2022-09-24T01:22:06;101479.34;;;12.62;55.64
46045;BME280;31781;54.094;13.428;2022-09-24T01:27:25;101485.22;;;12.59;55.86
46045;BME280;31781;54.094;13.428;2022-09-24T01:32:40;101481.00;;;12.57;55.40
46045;BME280;31781;54.094;13.428;2022-09-24T01:37:51;101472.38;;;12.53;55.43
46045;BME280;31781;54.094;13.428;2022-09-24T01:42:59;101474.47;;;12.51;55.84
46045;BME280;31781;54.094;13.428;2022-09-24T01:48:10;101474.91;;;12.48;56.38
46045;BME280;31781;54.094;13.428;2022-09-24T01:53:16;101463.31;;;12.46;55.88
46045;BME280;31781;54.094;13.428;2022-09-24T01:58:48;101462.72;;;12.51;55.17
46045;BME280;31781;54.094;13.428;2022-09-24T02:03:57;101463.09;;;12.41;55.68
46045;BME280;31781;54.094;13.428;2022-09-24T02:09:02;101458.03;;;12.38;56.63
46045;BME280;31781;54.094;13.428;2022-09-24T02:14:13;101463.72;;;12.37;56.65
46045;BME280;31781;54.094;13.428;2022-09-24T02:19:18;101463.06;;;12.35;55.78
46045;BME280;31781;54.094;13.428;2022-09-24T02:24:24;101450.84;;;12.31;56.79
46045;BME280;31781;54.094;13.428;2022-09-24T02:29:38;101438.69;;;12.27;56.79
46045;BME280;31781;54.094;13.428;2022-09-24T02:45:29;101429.22;;;12.23;56.43
46045;BME280;31781;54.094;13.428;2022-09-24T02:50:32;101431.13;;;12.22;56.19
46045;BME280;31781;54.094;13.428;2022-09-24T02:55:34;101433.19;;;12.20;56.91
46045;BME280;31781;54.094;13.428;2022-09-24T03:01:07;101424.31;;;12.24;55.51
46045;BME280;31781;54.094;13.428;2022-09-24T03:06:10;101424.38;;;12.23;56.35
46045;BME280;31781;54.094;13.428;2022-09-24T03:11:18;101423.63;;;12.22;57.17
46045;BME280;31781;54.094;13.428;2022-09-24T03:16:28;101419.87;;;12.22;57.30
46045;BME280;31781;54.094;13.428;2022-09-24T03:21:34;101418.59;;;12.21;56.60
46045;BME280;31781;54.094;13.428;2022-09-24T03:26:58;101412.66;;;12.31;56.17
46045;BME280;31781;54.094;13.428;2022-09-24T03:37:23;101411.62;;;12.32;56.05
46045;BME280;31781;54.094;13.428;2022-09-24T03:42:26;101408.88;;;12.25;56.68
46045;BME280;31781;54.094;13.428;2022-09-24T03:47:47;101403.44;;;12.32;56.17
46045;BME280;31781;54.094;13.428;2022-09-24T03:52:50;101403.59;;;12.24;56.72
46045;BME280;31781;54.094;13.428;2022-09-24T03:57:55;101398.56;;;12.20;57.39
46045;BME280;31781;54.094;13.428;2022-09-24T04:03:05;101401.50;;;12.19;57.61
46045;BME280;31781;54.094;13.428;2022-09-24T04:41:12;101393.06;;;12.07;57.19
46045;BME280;31781;54.094;13.428;2022-09-24T04:46:16;101393.25;;;12.06;56.82
46045;BME280;31781;54.094;13.428;2022-09-24T04:51:20;101384.88;;;12.01;57.93
46045;BME280;31781;54.094;13.428;2022-09-24T04:56:32;101390.69;;;11.98;58.07
46045;BME280;31781;54.094;13.428;2022-09-24T05:01:34;101386.50;;;11.95;57.33
46045;BME280;31781;54.094;13.428;2022-09-24T05:06:38;101391.31;;;11.93;58.41
46045;BME280;31781;54.094;13.428;2022-09-24T05:11:47;101386.69;;;11.94;58.62
46045;BME280;31781;54.094;13.428;2022-09-24T05:16:53;101390.47;;;11.93;57.62
46045;BME280;31781;54.094;13.428;2022-09-24T05:21:56;101391.53;;;11.92;58.42
46045;BME280;31781;54.094;13.428;2022-09-24T05:37:51;101394.84;;;11.87;57.80
46045;BME280;31781;54.094;13.428;2022-09-24T05:48:39;101398.22;;;11.89;58.03
46045;BME280;31781;54.094;13.428;2022-09-24T05:53:42;101403.47;;;11.91;58.20
46045;BME280;31781;54.094;13.428;2022-09-24T05:58:47;101406.00;;;11.92;59.39
46045;BME280;31781;54.094;13.428;2022-09-24T06:03:57;101404.56;;;11.96;58.95
46045;BME280;31781;54.094;13.428;2022-09-24T06:09:08;101404.78;;;12.01;58.37
46045;BME280;31781;54.094;13.428;2022-09-24T06:19:38;101410.75;;;12.18;57.56
46045;BME280;31781;54.094;13.428;2022-09-24T06:24:41;101408.84;;;12.12;58.17
46045;BME280;31781;54.094;13.428;2022-09-24T06:35:15;101419.63;;;12.33;57.78
46045;BME280;31781;54.094;13.428;2022-09-24T06:40:25;101422.78;;;12.37;58.05
46045;BME280;31781;54.094;13.428;2022-09-24T06:51:00;101415.97;;;12.80;57.54
46045;BME280;31781;54.094;13.428;2022-09-24T06:56:23;101411.16;;;13.02;57.31
46045;BME280;31781;54.094;13.428;2022-09-24T07:01:46;101415.41;;;13.24;57.34
46045;BME280;31781;54.094;13.428;2022-09-24T07:17:40;101426.91;;;13.79;56.68
46045;BME280;31781;54.094;13.428;2022-09-24T07:22:43;101426.69;;;13.87;56.32
46045;BME280;31781;54.094;13.428;2022-09-24T07:28:09;101440.09;;;14.14;56.30
46045;BME280;31781;54.094;13.428;2022-09-24T07:38:54;101429.59;;;14.63;56.30
46045;BME280;31781;54.094;13.428;2022-09-24T07:44:02;101432.19;;;14.82;55.81
46045;BME280;31781;54.094;13.428;2022-09-24T07:49:05;101438.13;;;15.10;55.24
46045;BME280;31781;54.094;13.428;2022-09-24T07:54:14;101437.25;;;15.41;55.39
46045;BME280;31781;54.094;13.428;2022-09-24T07:59:18;101441.25;;;15.70;54.80
46045;BME280;31781;54.094;13.428;2022-09-24T08:04:21;101442.12;;;15.89;54.20
46045;BME280;31781;54.094;13.428;2022-09-24T08:46:22;101447.63;;;17.33;53.24
46045;BME280;31781;54.094;13.428;2022-09-24T09:02:48;101438.66;;;18.07;52.37
46045;BME280;31781;54.094;13.428;2022-09-24T09:07:59;101445.47;;;18.28;52.32
46045;BME280;31781;54.094;13.428;2022-09-24T09:16:46;101443.97;;;18.88;51.90
46045;BME280;31781;54.094;13.428;2022-09-24T09:22:01;101449.09;;;18.96;50.85
46045;BME280;31781;54.094;13.428;2022-09-24T09:27:11;101451.28;;;19.11;50.15
46045;BME280;31781;54.094;13.428;2022-09-24T09:32:29;101449.12;;;19.30;49.64
46045;BME280;31781;54.094;13.428;2022-09-24T09:37:43;101439.56;;;19.49;49.83
46045;BME280;31781;54.094;13.428;2022-09-24T09:42:58;101431.44;;;19.59;48.14
46045;BME280;31781;54.094;13.428;2022-09-24T09:53:27;101433.34;;;19.75;48.52
46045;BME280;31781;54.094;13.428;2022-09-24T09:58:33;101441.41;;;19.77;48.46
46045;BME280;31781;54.094;13.428;2022-09-24T10:03:46;101436.19;;;19.80;47.55
46045;BME280;31781;54.094;13.428;2022-09-24T10:09:05;101434.94;;;19.88;48.81
46045;BME280;31781;54.094;13.428;2022-09-24T10:14:10;101418.19;;;19.95;49.04
46045;BME280;31781;54.094;13.428;2022-09-24T10:19:17;101424.34;;;20.02;48.21
46045;BME280;31781;54.094;13.428;2022-09-24T10:50:56;101408.28;;;21.12;46.88
46045;BME280;31781;54.094;13.428;2022-09-24T11:01:30;101416.37;;;21.56;47.23
46045;BME280;31781;54.094;13.428;2022-09-24T11:12:20;101416.13;;;21.94;46.50
46045;BME280;31781;54.094;13.428;2022-09-24T11:23:11;101419.06;;;22.24;45.73
46045;BME280;31781;54.094;13.428;2022-09-24T12:36:05;101419.78;;;22.67;40.47
46045;BME280;31781;54.094;13.428;2022-09-24T13:13:57;101411.25;;;22.78;40.41
46045;BME280;31781;54.094;13.428;2022-09-24T13:19:02;101411.22;;;22.73;42.53
46045;BME280;31781;54.094;13.428;2022-09-24T13:29:37;101408.69;;;22.67;41.11
46045;BME280;31781;54.094;13.428;2022-09-24T13:34:43;101407.91;;;22.71;42.67
46045;BME280;31781;54.094;13.428;2022-09-24T13:39:53;101415.94;;;22.68;41.14
46045;BME280;31781;54.094;13.428;2022-09-24T13:55:56;101402.00;;;22.53;42.80
46045;BME280;31781;54.094;13.428;2022-09-24T14:01:03;101400.28;;;22.42;41.68
46045;BME280;31781;54.094;13.428;2022-09-24T14:06:14;101401.38;;;22.36;41.13
46045;BME280;31781;54.094;13.428;2022-09-24T14:11:47;101385.84;;;22.40;42.66
46045;BME280;31781;54.094;13.428;2022-09-24T14:16:51;101389.97;;;22.27;42.85
46045;BME280;31781;54.094;13.428;2022-09-24T14:21:57;101388.00;;;22.22;41.14
46045;BME280;31781;54.094;13.428;2022-09-24T14:27:07;101393.28;;;22.24;41.12
46045;BME280;31781;54.094;13.428;2022-09-24T14:32:20;101386.31;;;22.16;42.44
46045;BME280;31781;54.094;13.428;2022-09-24T14:58:21;101380.22;;;22.19;40.26
46045;BME280;31781;54.094;13.428;2022-09-24T15:03:30;101379.97;;;22.26;42.26
46045;BME280;31781;54.094;13.428;2022-09-24T15:08:34;101382.50;;;22.27;41.78
46045;BME280;31781;54.094;13.428;2022-09-24T15:29:29;101394.28;;;22.03;40.88
46045;BME280;31781;54.094;13.428;2022-09-24T15:34:34;101392.03;;;21.95;42.11
46045;BME280;31781;54.094;13.428;2022-09-24T15:50:12;101390.13;;;21.63;43.12
46045;BME280;31781;54.094;13.428;2022-09-24T15:55:17;101393.28;;;21.40;43.26
46045;BME280;31781;54.094;13.428;2022-09-24T16:00:23;101400.06;;;21.22;42.84
46045;BME280;31781;54.094;13.428;2022-09-24T16:05:32;101392.72;;;21.06;43.30
46045;BME280;31781;54.094;13.428;2022-09-24T16:10:52;101390.41;;;20.98;44.48
46045;BME280;31781;54.094;13.428;2022-09-24T16:15:55;101397.34;;;20.74;44.68
46045;BME280;31781;54.094;13.428;2022-09-24T16:21:06;101394.09;;;20.55;44.42
46045;BME280;31781;54.094;13.428;2022-09-24T16:26:15;101403.56;;;20.37;45.24
46045;BME280;31781;54.094;13.428;2022-09-24T16:31:18;101409.72;;;20.23;45.74
46045;BME280;31781;54.094;13.428;2022-09-24T16:36:22;101403.97;;;20.08;45.99
46045;BME280;31781;54.094;13.428;2022-09-24T16:41:31;101409.56;;;19.91;46.30
46045;BME280;31781;54.094;13.428;2022-09-24T16:46:34;101407.91;;;19.73;46.55
46045;BME280;31781;54.094;13.428;2022-09-24T16:51:37;101416.22;;;19.57;47.05
46045;BME280;31781;54.094;13.428;2022-09-24T17:07:43;101425.78;;;19.04;47.65
46045;BME280;31781;54.094;13.428;2022-09-24T17:12:47;101422.16;;;18.87;48.02
46045;BME280;31781;54.094;13.428;2022-09-24T17:17:52;101422.09;;;18.70;48.71
46045;BME280;31781;54.094;13.428;2022-09-24T17:23:00;101424.56;;;18.55;48.91
46045;BME280;31781;54.094;13.428;2022-09-24T17:33:39;101422.12;;;18.24;48.58
46045;BME280;31781;54.094;13.428;2022-09-24T17:38:44;101422.50;;;18.20;49.24
46045;BME280;31781;54.094;13.428;2022-09-24T17:43:49;101425.44;;;18.12;50.26
46045;BME280;31781;54.094;13.428;2022-09-24T17:48:59;101426.34;;;18.03;50.60
46045;BME280;31781;54.094;13.428;2022-09-24T17:54:04;101426.16;;;17.91;50.27
46045;BME280;31781;54.094;13.428;2022-09-24T17:59:10;101426.37;;;17.78;51.30
46045;BME280;31781;54.094;13.428;2022-09-24T18:04:19;101425.53;;;17.65;51.95
46045;BME280;31781;54.094;13.428;2022-09-24T18:14:58;101442.00;;;16.98;50.70
46045;BME280;31781;54.094;13.428;2022-09-24T18:20:20;101442.06;;;16.80;51.13
46045;BME280;31781;54.094;13.428;2022-09-24T18:25:22;101446.84;;;16.54;52.39
46045;BME280;31781;54.094;13.428;2022-09-24T18:30:25;101444.47;;;16.40;53.66
46045;BME280;31781;54.094;13.428;2022-09-24T18:35:53;101448.97;;;16.34;52.10
46045;BME280;31781;54.094;13.428;2022-09-24T18:46:34;101450.56;;;16.06;52.01
46045;BME280;31781;54.094;13.428;2022-09-24T18:51:40;101452.84;;;16.03;53.18
46045;BME280;31781;54.094;13.428;2022-09-24T18:57:07;101461.16;;;15.84;52.79
46045;BME280;31781;54.094;13.428;2022-09-24T19:02:11;101467.22;;;15.68;53.28
46045;BME280;31781;54.094;13.428;2022-09-24T19:07:17;101466.50;;;15.54;55.24
46045;BME280;31781;54.094;13.428;2022-09-24T19:12:25;101473.13;;;15.40;55.63
46045;BME280;31781;54.094;13.428;2022-09-24T19:17:28;101475.97;;;15.27;54.84
46045;BME280;31781;54.094;13.428;2022-09-24T19:22:32;101473.09;;;15.15;56.10
46045;BME280;31781;54.094;13.428;2022-09-24T19:27:40;101470.00;;;15.05;56.24
46045;BME280;31781;54.094;13.428;2022-09-24T19:32:43;101465.00;;;14.95;55.52
46045;BME280;31781;54.094;13.428;2022-09-24T19:37:45;101469.28;;;14.85;57.01
46045;BME280;31781;54.094;13.428;2022-09-24T19:48:28;101470.78;;;14.62;55.10
46045;BME280;31781;54.094;13.428;2022-09-24T19:53:32;101473.56;;;14.57;56.98
46045;BME280;31781;54.094;13.428;2022-09-24T19:58:35;101473.25;;;14.50;59.52
46045;BME280;31781;54.094;13.428;2022-09-24T20:09:16;101471.25;;;14.07;55.91
46045;BME280;31781;54.094;13.428;2022-09-24T20:14:19;101463.94;;;13.88;57.78
46045;BME280;31781;54.094;13.428;2022-09-24T20:19:45;101468.75;;;13.86;56.79
46045;BME280;31781;54.094;13.428;2022-09-24T20:24:47;101471.72;;;13.71;58.17
46045;BME280;31781;54.094;13.428;2022-09-24T20:29:50;101465.44;;;13.64;59.94
46045;BME280;31781;54.094;13.428;2022-09-24T20:35:00;101468.16;;;13.57;60.11
46045;BME280;31781;54.094;13.428;2022-09-24T20:40:04;101467.75;;;13.54;58.61
46045;BME280;31781;54.094;13.428;2022-09-24T20:45:08;101470.25;;;13.49;60.47
46045;BME280;31781;54.094;13.428;2022-09-24T20:50:17;101469.84;;;13.45;60.42
46045;BME280;31781;54.094;13.428;2022-09-24T20:55:23;101467.53;;;13.42;58.81
46045;BME280;31781;54.094;13.428;2022-09-24T21:00:26;101472.38;;;13.40;60.30
46045;BME280;31781;54.094;13.428;2022-09-24T21:05:34;101463.34;;;13.40;60.41
46045;BME280;31781;54.094;13.428;2022-09-24T21:10:37;101462.50;;;13.39;59.23
46045;BME280;31781;54.094;13.428;2022-09-24T21:15:40;101460.37;;;13.35;60.53
46045;BME280;31781;54.094;13.428;2022-09-24T21:21:20;101460.59;;;13.40;58.19
46045;BME280;31781;54.094;13.428;2022-09-24T21:26:26;101469.66;;;13.34;58.38
46045;BME280;31781;54.094;13.428;2022-09-24T21:31:31;101463.78;;;13.30;60.28
46045;BME280;31781;54.094;13.428;2022-09-24T21:36:42;101470.28;;;13.29;61.10
46045;BME280;31781;54.094;13.428;2022-09-24T21:41:46;101475.53;;;13.24;59.53
46045;BME280;31781;54.094;13.428;2022-09-24T21:46:49;101469.88;;;13.19;61.20
46045;BME280;31781;54.094;13.428;2022-09-24T21:51:58;101466.47;;;13.17;61.29
46045;BME280;31781;54.094;13.428;2022-09-24T21:57:02;101466.06;;;13.13;59.98
46045;BME280;31781;54.094;13.428;2022-09-24T22:02:07;101464.78;;;13.09;61.29
46045;BME280;31781;54.094;13.428;2022-09-24T22:07:15;101470.63;;;13.06;61.15
46045;BME280;31781;54.094;13.428;2022-09-24T22:12:18;101473.78;;;13.03;60.22
46045;BME280;31781;54.094;13.428;2022-09-24T22:17:21;101471.69;;;12.99;61.42
46045;BME280;31781;54.094;13.428;2022-09-24T22:27:52;101473.75;;;12.90;60.00
46045;BME280;31781;54.094;13.428;2022-09-24T22:44:49;101459.47;;;12.82;60.10
46045;BME280;31781;54.094;13.428;2022-09-24T22:55:20;101448.72;;;12.74;60.19
46045;BME280;31781;54.094;13.428;2022-09-24T23:00:24;101449.75;;;12.66;60.96
46045;BME280;31781;54.094;13.428;2022-09-24T23:05:29;101448.06;;;12.65;63.01
46045;BME280;31781;54.094;13.428;2022-09-24T23:10:39;101444.91;;;12.61;62.32
46045;BME280;31781;54.094;13.428;2022-09-24T23:15:42;101444.06;;;12.61;61.30
46045;BME280;31781;54.094;13.428;2022-09-24T23:20:47;101446.34;;;12.57;63.45
46045;BME280;31781;54.094;13.428;2022-09-24T23:25:59;101439.84;;;12.52;63.55
46045;BME280;31781;54.094;13.428;2022-09-24T23:31:29;101440.69;;;12.52;60.26
46045;BME280;31781;54.094;13.428;2022-09-24T23:36:34;101437.47;;;12.42;61.46
46045;BME280;31781;54.094;13.428;2022-09-24T23:41:39;101430.75;;;12.38;63.38
46045;BME280;31781;54.094;13.428;2022-09-24T23:47:00;101437.28;;;12.44;61.00
46045;BME280;31781;54.094;13.428;2022-09-24T23:52:03;101436.84;;;12.34;62.12
